createdAt,value
2023-02-04T00:00:51.369Z,1025.19
2023-02-04T00:01:51.415Z,1025.16
2023-02-04T00:02:51.537Z,1025.12
2023-02-04T00:03:51.445Z,1025.12
2023-02-04T00:04:51.474Z,1025.13
2023-02-04T00:05:51.563Z,1025.17
2023-02-04T00:06:51.515Z,1025.17
2023-02-04T00:07:51.543Z,1025.16
2023-02-04T00:08:51.564Z,1025.20
2023-02-04T00:09:51.590Z,1025.26
2023-02-04T00:10:51.615Z,1025.24
2023-02-04T00:11:51.640Z,1025.29
2023-02-04T00:12:51.661Z,1025.30
2023-02-04T00:13:51.686Z,1025.38
2023-02-04T00:14:51.710Z,1025.31
2023-02-04T00:15:51.795Z,1025.33
2023-02-04T00:16:51.759Z,1025.44
2023-02-04T00:17:51.804Z,1025.41
2023-02-04T00:18:51.809Z,1025.44
2023-02-04T00:19:51.842Z,1025.45
2023-02-04T00:20:51.859Z,1025.45
2023-02-04T00:21:51.885Z,1025.47
2023-02-04T00:22:51.906Z,1025.50
2023-02-04T00:23:51.933Z,1025.53
2023-02-04T00:24:51.961Z,1025.48
2023-02-04T00:25:51.982Z,1025.47
2023-02-04T00:26:52.004Z,1025.45
2023-02-04T00:27:52.073Z,1025.42
2023-02-04T00:28:52.062Z,1025.44
2023-02-04T00:29:52.081Z,1025.40
2023-02-04T00:30:52.102Z,1025.48
2023-02-04T00:31:52.204Z,1025.44
2023-02-04T00:32:52.152Z,1025.60
2023-02-04T00:33:52.207Z,1025.57
2023-02-04T00:34:52.202Z,1025.64
2023-02-04T00:35:52.233Z,1025.61
2023-02-04T00:36:52.249Z,1025.57
2023-02-04T00:37:52.280Z,1025.59
2023-02-04T00:38:52.299Z,1025.64
2023-02-04T00:39:52.323Z,1025.59
2023-02-04T00:40:52.550Z,1025.57
2023-02-04T00:41:52.374Z,1025.58
2023-02-04T00:42:52.398Z,1025.56
2023-02-04T00:43:52.422Z,1025.59
2023-02-04T00:44:52.446Z,1025.50
2023-02-04T00:45:52.587Z,1025.60
2023-02-04T00:46:52.496Z,1025.52
2023-02-04T00:47:52.520Z,1025.48
2023-02-04T00:48:52.542Z,1025.58
2023-02-04T00:49:52.589Z,1025.64
2023-02-04T00:50:52.594Z,1025.56
2023-02-04T00:51:52.619Z,1025.62
2023-02-04T00:52:52.663Z,1025.58
2023-02-04T00:53:52.673Z,1025.64
2023-02-04T00:54:52.692Z,1025.66
2023-02-04T00:55:52.718Z,1025.58
2023-02-04T00:56:52.741Z,1025.61
2023-02-04T00:57:52.768Z,1025.56
2023-02-04T00:58:52.786Z,1025.66
2023-02-04T00:59:53.014Z,1025.68
2023-02-04T01:00:52.866Z,1025.70
2023-02-04T01:01:52.885Z,1025.67
2023-02-04T01:02:53.009Z,1025.63
2023-02-04T01:03:52.916Z,1025.70
2023-02-04T01:04:52.987Z,1025.73
2023-02-04T01:05:52.987Z,1025.70
2023-02-04T01:06:52.988Z,1025.67
2023-02-04T01:07:53.014Z,1025.68
2023-02-04T01:08:53.041Z,1025.69
2023-02-04T01:09:53.063Z,1025.75
2023-02-04T01:10:53.089Z,1025.69
2023-02-04T01:11:53.113Z,1025.75
2023-02-04T01:12:53.141Z,1025.76
2023-02-04T01:13:53.161Z,1025.81
2023-02-04T01:14:53.185Z,1025.79
2023-02-04T01:15:53.211Z,1025.81
2023-02-04T01:16:53.238Z,1025.85
2023-02-04T01:17:53.260Z,1025.83
2023-02-04T01:18:53.289Z,1025.87
2023-02-04T01:19:53.310Z,1025.91
2023-02-04T01:20:53.334Z,1025.91
2023-02-04T01:21:53.378Z,1025.87
2023-02-04T01:22:53.381Z,1025.90
2023-02-04T01:23:53.406Z,1025.93
2023-02-04T01:24:53.429Z,1025.92
2023-02-04T01:25:53.455Z,1025.99
2023-02-04T01:26:53.480Z,1025.94
2023-02-04T01:27:53.533Z,1025.98
2023-02-04T01:28:53.529Z,1025.92
2023-02-04T01:29:53.556Z,1025.98
2023-02-04T01:30:53.656Z,1026.01
2023-02-04T01:31:53.629Z,1025.97
2023-02-04T01:32:53.629Z,1026.00
2023-02-04T01:33:53.662Z,1025.98
2023-02-04T01:34:54.605Z,1026.00
2023-02-04T01:35:53.702Z,1025.96
2023-02-04T01:36:53.723Z,1026.02
2023-02-04T01:37:53.770Z,1026.06
2023-02-04T01:38:53.778Z,1026.03
2023-02-04T01:39:53.797Z,1026.01
2023-02-04T01:40:53.825Z,1026.01
2023-02-04T01:41:53.847Z,1025.99
2023-02-04T01:42:53.872Z,1025.97
2023-02-04T01:43:53.896Z,1025.99
2023-02-04T01:44:53.940Z,1026.05
2023-02-04T01:45:53.978Z,1026.01
2023-02-04T01:46:53.969Z,1025.98
2023-02-04T01:47:53.994Z,1026.04
2023-02-04T01:48:54.018Z,1026.08
2023-02-04T01:49:54.043Z,1026.09
2023-02-04T01:50:54.066Z,1026.14
2023-02-04T01:51:54.093Z,1026.14
2023-02-04T01:52:54.115Z,1026.17
2023-02-04T01:53:54.161Z,1026.20
2023-02-04T01:54:54.165Z,1026.21
2023-02-04T01:55:54.210Z,1026.20
2023-02-04T01:56:54.212Z,1026.25
2023-02-04T01:57:54.244Z,1026.24
2023-02-04T01:58:54.269Z,1026.26
2023-02-04T01:59:54.289Z,1026.27
2023-02-04T02:00:54.352Z,1026.33
2023-02-04T02:01:54.445Z,1026.27
2023-02-04T02:02:54.359Z,1026.25
2023-02-04T02:03:54.386Z,1026.21
2023-02-04T02:04:54.409Z,1026.21
2023-02-04T02:05:54.443Z,1026.26
2023-02-04T02:06:54.458Z,1026.29
2023-02-04T02:07:54.485Z,1026.31
2023-02-04T02:08:54.507Z,1026.33
2023-02-04T02:09:54.555Z,1026.30
2023-02-04T02:10:54.554Z,1026.31
2023-02-04T02:11:54.583Z,1026.30
2023-02-04T02:12:54.607Z,1026.30
2023-02-04T02:13:54.630Z,1026.30
2023-02-04T02:14:54.659Z,1026.37
2023-02-04T02:15:54.680Z,1026.39
2023-02-04T02:16:54.758Z,1026.36
2023-02-04T02:17:54.729Z,1026.38
2023-02-04T02:18:54.759Z,1026.35
2023-02-04T02:19:54.776Z,1026.35
2023-02-04T02:20:54.799Z,1026.38
2023-02-04T02:21:54.825Z,1026.33
2023-02-04T02:22:54.847Z,1026.33
2023-02-04T02:23:54.877Z,1026.36
2023-02-04T02:24:54.900Z,1026.31
2023-02-04T02:25:54.940Z,1026.38
2023-02-04T02:26:54.948Z,1026.34
2023-02-04T02:27:55.006Z,1026.39
2023-02-04T02:28:54.995Z,1026.40
2023-02-04T02:29:55.023Z,1026.38
2023-02-04T02:30:55.159Z,1026.38
2023-02-04T02:31:55.115Z,1026.41
2023-02-04T02:32:55.094Z,1026.39
2023-02-04T02:33:55.117Z,1026.43
2023-02-04T02:34:55.143Z,1026.41
2023-02-04T02:35:55.172Z,1026.44
2023-02-04T02:36:55.192Z,1026.49
2023-02-04T02:37:55.218Z,1026.47
2023-02-04T02:38:55.241Z,1026.46
2023-02-04T02:39:55.265Z,1026.47
2023-02-04T02:40:55.290Z,1026.47
2023-02-04T02:41:55.331Z,1026.44
2023-02-04T02:42:55.346Z,1026.45
2023-02-04T02:43:55.362Z,1026.49
2023-02-04T02:44:55.391Z,1026.49
2023-02-04T02:45:55.484Z,1026.51
2023-02-04T02:46:55.434Z,1026.48
2023-02-04T02:47:55.457Z,1026.49
2023-02-04T02:48:55.493Z,1026.52
2023-02-04T02:49:55.505Z,1026.45
2023-02-04T02:50:55.530Z,1026.44
2023-02-04T02:51:55.555Z,1026.51
2023-02-04T02:52:55.581Z,1026.52
2023-02-04T02:53:55.607Z,1026.47
2023-02-04T02:54:55.627Z,1026.47
2023-02-04T02:55:55.651Z,1026.54
2023-02-04T02:56:55.677Z,1026.49
2023-02-04T02:57:55.718Z,1026.49
2023-02-04T02:58:55.726Z,1026.48
2023-02-04T02:59:55.750Z,1026.47
2023-02-04T03:00:55.815Z,1026.53
2023-02-04T03:01:55.796Z,1026.54
2023-02-04T03:02:55.834Z,1026.56
2023-02-04T03:03:55.845Z,1026.68
2023-02-04T03:04:55.870Z,1026.63
2023-02-04T03:05:55.893Z,1026.68
2023-02-04T03:06:55.920Z,1026.69
2023-02-04T03:07:55.942Z,1026.64
2023-02-04T03:08:55.997Z,1026.68
2023-02-04T03:09:55.991Z,1026.69
2023-02-04T03:10:56.019Z,1026.67
2023-02-04T03:11:56.041Z,1026.72
2023-02-04T03:12:56.067Z,1026.68
2023-02-04T03:13:56.108Z,1026.72
2023-02-04T03:14:56.114Z,1026.66
2023-02-04T03:15:56.187Z,1026.67
2023-02-04T03:16:56.165Z,1026.63
2023-02-04T03:17:56.192Z,1026.66
2023-02-04T03:18:56.214Z,1026.73
2023-02-04T03:19:56.238Z,1026.70
2023-02-04T03:20:56.266Z,1026.75
2023-02-04T03:21:56.292Z,1026.74
2023-02-04T03:22:56.319Z,1026.76
2023-02-04T03:23:56.337Z,1026.78
2023-02-04T03:24:56.364Z,1026.77
2023-02-04T03:25:56.388Z,1026.84
2023-02-04T03:26:56.417Z,1026.84
2023-02-04T03:27:56.540Z,1026.82
2023-02-04T03:28:56.466Z,1026.87
2023-02-04T03:29:56.506Z,1026.89
2023-02-04T03:30:56.753Z,1026.89
2023-02-04T03:31:56.756Z,1026.90
2023-02-04T03:32:56.562Z,1026.91
2023-02-04T03:33:56.587Z,1026.97
2023-02-04T03:34:56.628Z,1026.93
2023-02-04T03:35:56.636Z,1026.96
2023-02-04T03:36:56.661Z,1026.97
2023-02-04T03:37:56.685Z,1027.02
2023-02-04T03:38:56.716Z,1027.00
2023-02-04T03:39:56.735Z,1026.99
2023-02-04T03:40:56.759Z,1026.98
2023-02-04T03:41:56.784Z,1027.02
2023-02-04T03:42:56.810Z,1027.04
2023-02-04T03:43:56.836Z,1027.00
2023-02-04T03:44:56.859Z,1026.96
2023-02-04T03:45:56.912Z,1026.97
2023-02-04T03:46:56.908Z,1026.96
2023-02-04T03:47:56.931Z,1026.97
2023-02-04T03:48:56.958Z,1026.97
2023-02-04T03:49:56.981Z,1027.00
2023-02-04T03:50:57.014Z,1027.00
2023-02-04T03:51:57.032Z,1026.95
2023-02-04T03:52:57.058Z,1026.99
2023-02-04T03:53:57.085Z,1026.97
2023-02-04T03:54:57.105Z,1027.01
2023-02-04T03:55:57.129Z,1026.98
2023-02-04T03:56:57.156Z,1027.03
2023-02-04T03:57:57.182Z,1027.01
2023-02-04T03:58:57.203Z,1027.05
2023-02-04T03:59:57.233Z,1027.07
2023-02-04T04:00:57.256Z,1027.04
2023-02-04T04:01:57.354Z,1027.04
2023-02-04T04:02:57.357Z,1027.06
2023-02-04T04:03:57.327Z,1027.03
2023-02-04T04:04:57.350Z,1027.07
2023-02-04T04:05:57.374Z,1027.09
2023-02-04T04:06:57.409Z,1027.07
2023-02-04T04:07:57.424Z,1027.05
2023-02-04T04:08:57.449Z,1027.00
2023-02-04T04:09:57.472Z,1027.01
2023-02-04T04:10:57.498Z,1027.07
2023-02-04T04:11:57.522Z,1027.09
2023-02-04T04:12:57.548Z,1027.09
2023-02-04T04:13:57.571Z,1027.06
2023-02-04T04:14:57.599Z,1027.04
2023-02-04T04:15:57.658Z,1027.08
2023-02-04T04:16:57.645Z,1027.07
2023-02-04T04:17:57.688Z,1027.10
2023-02-04T04:18:57.694Z,1027.05
2023-02-04T04:19:57.718Z,1027.11
2023-02-04T04:20:57.745Z,1027.08
2023-02-04T04:21:57.768Z,1027.12
2023-02-04T04:22:57.792Z,1027.12
2023-02-04T04:23:57.816Z,1027.14
2023-02-04T04:24:57.840Z,1027.12
2023-02-04T04:25:57.863Z,1027.17
2023-02-04T04:26:57.890Z,1027.16
2023-02-04T04:27:57.969Z,1027.08
2023-02-04T04:28:57.937Z,1027.09
2023-02-04T04:29:57.965Z,1027.10
2023-02-04T04:30:58.155Z,1027.10
2023-02-04T04:31:58.057Z,1027.13
2023-02-04T04:32:58.032Z,1027.11
2023-02-04T04:33:58.074Z,1027.14
2023-02-04T04:34:58.081Z,1027.16
2023-02-04T04:35:58.104Z,1027.16
2023-02-04T04:36:58.128Z,1027.19
2023-02-04T04:37:58.151Z,1027.18
2023-02-04T04:38:58.179Z,1027.24
2023-02-04T04:39:58.199Z,1027.27
2023-02-04T04:40:58.225Z,1027.27
2023-02-04T04:41:58.265Z,1027.31
2023-02-04T04:42:58.278Z,1027.35
2023-02-04T04:43:58.301Z,1027.39
2023-02-04T04:44:58.323Z,1027.37
2023-02-04T04:45:58.344Z,1027.39
2023-02-04T04:46:58.401Z,1027.39
2023-02-04T04:47:58.394Z,1027.45
2023-02-04T04:48:58.418Z,1027.44
2023-02-04T04:49:58.483Z,1027.47
2023-02-04T04:50:58.467Z,1027.49
2023-02-04T04:51:58.495Z,1027.51
2023-02-04T04:52:58.515Z,1027.48
2023-02-04T04:53:58.538Z,1027.49
2023-02-04T04:54:58.572Z,1027.53
2023-02-04T04:55:58.587Z,1027.51
2023-02-04T04:56:58.612Z,1027.57
2023-02-04T04:57:58.738Z,1027.58
2023-02-04T04:58:58.662Z,1027.60
2023-02-04T04:59:58.684Z,1027.53
2023-02-04T05:00:58.759Z,1027.56
2023-02-04T05:01:58.734Z,1027.61
2023-02-04T05:02:58.761Z,1027.62
2023-02-04T05:03:58.787Z,1027.65
2023-02-04T05:04:58.839Z,1027.63
2023-02-04T05:05:58.851Z,1027.62
2023-02-04T05:06:58.869Z,1027.59
2023-02-04T05:07:58.884Z,1027.55
2023-02-04T05:08:58.911Z,1027.60
2023-02-04T05:09:58.933Z,1027.56
2023-02-04T05:10:58.962Z,1027.60
2023-02-04T05:11:58.987Z,1027.65
2023-02-04T05:12:59.008Z,1027.64
2023-02-04T05:13:59.030Z,1027.63
2023-02-04T05:14:59.057Z,1027.63
2023-02-04T05:15:59.095Z,1027.66
2023-02-04T05:16:59.116Z,1027.60
2023-02-04T05:17:59.129Z,1027.61
2023-02-04T05:18:59.168Z,1027.65
2023-02-04T05:19:59.185Z,1027.60
2023-02-04T05:20:59.202Z,1027.62
2023-02-04T05:21:59.248Z,1027.58
2023-02-04T05:22:59.253Z,1027.59
2023-02-04T05:23:59.288Z,1027.56
2023-02-04T05:24:59.307Z,1027.62
2023-02-04T05:25:59.324Z,1027.67
2023-02-04T05:26:59.350Z,1027.64
2023-02-04T05:27:59.471Z,1027.65
2023-02-04T05:28:59.399Z,1027.71
2023-02-04T05:29:59.421Z,1027.74
2023-02-04T05:30:59.511Z,1027.78
2023-02-04T05:31:59.522Z,1027.86
2023-02-04T05:32:59.496Z,1027.88
2023-02-04T05:33:59.518Z,1027.86
2023-02-04T05:34:59.547Z,1027.91
2023-02-04T05:35:59.570Z,1027.83
2023-02-04T05:36:59.594Z,1027.79
2023-02-04T05:37:59.671Z,1027.74
2023-02-04T05:38:59.640Z,1027.77
2023-02-04T05:39:59.707Z,1027.83
2023-02-04T05:40:59.688Z,1027.78
2023-02-04T05:41:59.714Z,1027.88
2023-02-04T05:42:59.741Z,1027.87
2023-02-04T05:43:59.761Z,1027.86
2023-02-04T05:44:59.784Z,1027.87
2023-02-04T05:45:59.855Z,1027.90
2023-02-04T05:46:59.832Z,1027.90
2023-02-04T05:47:59.858Z,1027.90
2023-02-04T05:48:59.883Z,1027.95
2023-02-04T05:49:59.906Z,1027.97
2023-02-04T05:50:59.929Z,1027.96
2023-02-04T05:51:59.971Z,1027.93
2023-02-04T05:52:59.980Z,1027.97
2023-02-04T05:54:00.031Z,1028.01
2023-02-04T05:55:00.029Z,1028.01
2023-02-04T05:56:00.054Z,1028.03
2023-02-04T05:57:00.075Z,1028.04
2023-02-04T05:58:00.111Z,1028.06
2023-02-04T05:59:00.150Z,1028.06
2023-02-04T06:00:00.155Z,1028.08
2023-02-04T06:01:00.169Z,1028.09
2023-02-04T06:02:00.195Z,1028.09
2023-02-04T06:03:00.355Z,1028.13
2023-02-04T06:04:00.550Z,1028.07
2023-02-04T06:05:00.273Z,1028.17
2023-02-04T06:06:00.296Z,1028.17
2023-02-04T06:07:00.316Z,1028.16
2023-02-04T06:08:00.338Z,1028.23
2023-02-04T06:09:00.372Z,1028.21
2023-02-04T06:10:00.689Z,1028.18
2023-02-04T06:11:00.420Z,1028.22
2023-02-04T06:12:00.435Z,1028.19
2023-02-04T06:13:00.464Z,1028.19
2023-02-04T06:14:00.489Z,1028.23
2023-02-04T06:15:00.526Z,1028.25
2023-02-04T06:16:00.552Z,1028.30
2023-02-04T06:17:00.698Z,1028.33
2023-02-04T06:18:00.579Z,1028.39
2023-02-04T06:19:00.608Z,1028.37
2023-02-04T06:20:00.631Z,1028.36
2023-02-04T06:21:00.659Z,1028.36
2023-02-04T06:22:00.676Z,1028.32
2023-02-04T06:23:00.701Z,1028.32
2023-02-04T06:24:00.731Z,1028.29
2023-02-04T06:25:00.749Z,1028.28
2023-02-04T06:26:00.792Z,1028.35
2023-02-04T06:27:00.797Z,1028.38
2023-02-04T06:28:00.862Z,1028.41
2023-02-04T06:29:00.850Z,1028.49
2023-02-04T06:30:00.884Z,1028.44
2023-02-04T06:31:01.044Z,1028.46
2023-02-04T06:32:00.972Z,1028.43
2023-02-04T06:33:00.945Z,1028.40
2023-02-04T06:34:00.968Z,1028.44
2023-02-04T06:35:01.002Z,1028.50
2023-02-04T06:36:01.019Z,1028.47
2023-02-04T06:37:01.043Z,1028.49
2023-02-04T06:38:01.065Z,1028.52
2023-02-04T06:39:01.088Z,1028.54
2023-02-04T06:40:01.131Z,1028.53
2023-02-04T06:41:01.136Z,1028.54
2023-02-04T06:42:01.181Z,1028.57
2023-02-04T06:43:01.190Z,1028.54
2023-02-04T06:44:01.213Z,1028.56
2023-02-04T06:45:01.240Z,1028.57
2023-02-04T06:46:01.372Z,1028.52
2023-02-04T06:47:01.284Z,1028.54
2023-02-04T06:48:01.323Z,1028.53
2023-02-04T06:49:01.330Z,1028.51
2023-02-04T06:50:01.356Z,1028.54
2023-02-04T06:51:01.383Z,1028.55
2023-02-04T06:52:01.404Z,1028.54
2023-02-04T06:53:01.428Z,1028.53
2023-02-04T06:54:01.459Z,1028.57
2023-02-04T06:55:01.486Z,1028.56
2023-02-04T06:56:01.502Z,1028.57
2023-02-04T06:57:01.538Z,1028.57
2023-02-04T06:58:01.573Z,1028.56
2023-02-04T06:59:03.387Z,1028.56
2023-02-04T07:00:01.626Z,1028.56
2023-02-04T07:01:01.650Z,1028.50
2023-02-04T07:02:01.645Z,1028.60
2023-02-04T07:03:01.669Z,1028.55
2023-02-04T07:04:01.697Z,1028.56
2023-02-04T07:05:01.723Z,1028.56
2023-02-04T07:06:01.745Z,1028.56
2023-02-04T07:07:01.766Z,1028.59
2023-02-04T07:08:01.795Z,1028.61
2023-02-04T07:09:01.824Z,1028.60
2023-02-04T07:10:01.923Z,1028.60
2023-02-04T07:11:01.862Z,1028.66
2023-02-04T07:12:01.910Z,1028.69
2023-02-04T07:13:01.912Z,1028.66
2023-02-04T07:14:01.959Z,1028.65
2023-02-04T07:15:01.963Z,1028.71
2023-02-04T07:16:02.083Z,1028.70
2023-02-04T07:17:02.009Z,1028.65
2023-02-04T07:18:02.234Z,1028.68
2023-02-04T07:19:02.059Z,1028.68
2023-02-04T07:20:02.085Z,1028.61
2023-02-04T07:21:02.111Z,1028.67
2023-02-04T07:22:02.131Z,1028.67
2023-02-04T07:23:02.256Z,1028.69
2023-02-04T07:24:02.183Z,1028.73
2023-02-04T07:25:02.206Z,1028.75
2023-02-04T07:26:02.234Z,1028.79
2023-02-04T07:27:02.748Z,1028.72
2023-02-04T07:28:02.290Z,1028.81
2023-02-04T07:29:02.298Z,1028.83
2023-02-04T07:30:02.349Z,1028.85
2023-02-04T07:31:02.491Z,1028.86
2023-02-04T07:32:02.479Z,1028.91
2023-02-04T07:33:02.400Z,1028.83
2023-02-04T07:34:02.424Z,1028.91
2023-02-04T07:35:02.446Z,1028.93
2023-02-04T07:36:02.472Z,1028.94
2023-02-04T07:37:02.578Z,1028.93
2023-02-04T07:38:02.518Z,1028.97
2023-02-04T07:39:02.540Z,1028.96
2023-02-04T07:40:02.575Z,1028.98
2023-02-04T07:41:02.586Z,1028.96
2023-02-04T07:42:02.622Z,1029.02
2023-02-04T07:43:02.634Z,1029.04
2023-02-04T07:44:02.659Z,1029.02
2023-02-04T07:45:02.683Z,1029.04
2023-02-04T07:46:02.786Z,1029.07
2023-02-04T07:47:02.734Z,1029.11
2023-02-04T07:48:02.763Z,1029.12
2023-02-04T07:49:02.776Z,1029.09
2023-02-04T07:50:02.962Z,1029.15
2023-02-04T07:51:02.976Z,1029.19
2023-02-04T07:52:02.952Z,1029.16
2023-02-04T07:53:02.980Z,1029.19
2023-02-04T07:54:02.905Z,1029.18
2023-02-04T07:55:02.996Z,1029.17
2023-02-04T07:56:02.956Z,1029.14
2023-02-04T07:57:02.972Z,1029.19
2023-02-04T07:58:03.006Z,1029.18
2023-02-04T07:59:03.023Z,1029.15
2023-02-04T08:00:03.045Z,1029.17
2023-02-04T08:01:03.076Z,1029.16
2023-02-04T08:02:03.109Z,1029.21
2023-02-04T08:03:03.231Z,1029.18
2023-02-04T08:04:03.145Z,1029.22
2023-02-04T08:05:03.167Z,1029.26
2023-02-04T08:06:03.196Z,1029.24
2023-02-04T08:07:03.214Z,1029.28
2023-02-04T08:08:03.244Z,1029.27
2023-02-04T08:09:03.264Z,1029.29
2023-02-04T08:10:03.290Z,1029.29
2023-02-04T08:11:03.311Z,1029.30
2023-02-04T08:12:03.337Z,1029.27
2023-02-04T08:13:03.357Z,1029.30
2023-02-04T08:14:03.386Z,1029.28
2023-02-04T08:15:03.409Z,1029.26
2023-02-04T08:16:03.537Z,1029.30
2023-02-04T08:17:03.457Z,1029.24
2023-02-04T08:18:03.509Z,1029.29
2023-02-04T08:19:03.512Z,1029.35
2023-02-04T08:20:03.535Z,1029.35
2023-02-04T08:21:03.555Z,1029.29
2023-02-04T08:22:03.586Z,1029.32
2023-02-04T08:23:03.623Z,1029.29
2023-02-04T08:24:03.631Z,1029.29
2023-02-04T08:25:03.657Z,1029.28
2023-02-04T08:26:03.689Z,1029.33
2023-02-04T08:27:03.704Z,1029.35
2023-02-04T08:28:03.829Z,1029.33
2023-02-04T08:29:03.750Z,1029.31
2023-02-04T08:30:03.777Z,1029.37
2023-02-04T08:31:03.967Z,1029.41
2023-02-04T08:32:03.851Z,1029.42
2023-02-04T08:33:03.850Z,1029.43
2023-02-04T08:34:03.895Z,1029.47
2023-02-04T08:35:05.594Z,1029.50
2023-02-04T08:36:03.928Z,1029.51
2023-02-04T08:37:03.946Z,1029.48
2023-02-04T08:38:03.975Z,1029.46
2023-02-04T08:39:03.997Z,1029.47
2023-02-04T08:40:04.028Z,1029.45
2023-02-04T08:41:04.071Z,1029.49
2023-02-04T08:42:04.071Z,1029.51
2023-02-04T08:43:04.103Z,1029.56
2023-02-04T08:44:04.122Z,1029.55
2023-02-04T08:45:04.152Z,1029.56
2023-02-04T08:46:04.180Z,1029.56
2023-02-04T08:47:04.249Z,1029.58
2023-02-04T08:48:04.235Z,1029.55
2023-02-04T08:49:04.257Z,1029.52
2023-02-04T08:50:04.331Z,1029.52
2023-02-04T08:51:04.315Z,1029.58
2023-02-04T08:52:04.338Z,1029.63
2023-02-04T08:53:04.370Z,1029.60
2023-02-04T08:54:04.390Z,1029.59
2023-02-04T08:55:04.426Z,1029.61
2023-02-04T08:56:04.444Z,1029.57
2023-02-04T08:57:04.505Z,1029.61
2023-02-04T08:58:04.493Z,1029.62
2023-02-04T08:59:04.517Z,1029.64
2023-02-04T09:00:04.549Z,1029.59
2023-02-04T09:01:04.687Z,1029.62
2023-02-04T09:02:04.662Z,1029.66
2023-02-04T09:03:04.621Z,1029.62
2023-02-04T09:04:04.651Z,1029.63
2023-02-04T09:05:04.678Z,1029.71
2023-02-04T09:06:04.720Z,1029.71
2023-02-04T09:07:04.721Z,1029.78
2023-02-04T09:08:04.758Z,1029.69
2023-02-04T09:09:04.774Z,1029.78
2023-02-04T09:10:04.812Z,1029.74
2023-02-04T09:11:04.824Z,1029.78
2023-02-04T09:12:04.852Z,1029.79
2023-02-04T09:13:04.889Z,1029.79
2023-02-04T09:14:04.903Z,1029.82
2023-02-04T09:15:04.928Z,1029.86
2023-02-04T09:16:05.011Z,1029.86
2023-02-04T09:17:04.976Z,1029.86
2023-02-04T09:18:05.011Z,1029.86
2023-02-04T09:19:05.027Z,1029.89
2023-02-04T09:20:05.055Z,1029.92
2023-02-04T09:21:05.080Z,1029.94
2023-02-04T09:22:05.127Z,1029.91
2023-02-04T09:23:05.130Z,1029.97
2023-02-04T09:24:05.159Z,1029.95
2023-02-04T09:25:05.179Z,1029.93
2023-02-04T09:26:05.206Z,1029.94
2023-02-04T09:27:05.231Z,1029.96
2023-02-04T09:28:05.323Z,1029.94
2023-02-04T09:29:05.281Z,1029.96
2023-02-04T09:30:05.309Z,1029.95
2023-02-04T09:31:05.338Z,1029.92
2023-02-04T09:32:05.428Z,1029.96
2023-02-04T09:33:05.384Z,1029.99
2023-02-04T09:34:05.424Z,1030.01
2023-02-04T09:35:05.436Z,1030.02
2023-02-04T09:36:05.463Z,1030.03
2023-02-04T09:37:05.486Z,1030.04
2023-02-04T09:38:05.534Z,1030.06
2023-02-04T09:39:05.541Z,1030.06
2023-02-04T09:40:05.566Z,1030.09
2023-02-04T09:41:05.592Z,1030.12
2023-02-04T09:42:05.618Z,1030.12
2023-02-04T09:43:05.648Z,1030.12
2023-02-04T09:44:05.672Z,1030.12
2023-02-04T09:45:05.691Z,1030.17
2023-02-04T09:46:05.774Z,1030.16
2023-02-04T09:47:05.744Z,1030.15
2023-02-04T09:48:05.773Z,1030.18
2023-02-04T09:49:05.797Z,1030.18
2023-02-04T09:50:05.825Z,1030.19
2023-02-04T09:51:05.850Z,1030.18
2023-02-04T09:52:05.874Z,1030.24
2023-02-04T09:53:05.899Z,1030.24
2023-02-04T09:54:05.947Z,1030.26
2023-02-04T09:55:05.944Z,1030.22
2023-02-04T09:56:05.967Z,1030.15
2023-02-04T09:57:05.991Z,1030.17
2023-02-04T09:58:06.168Z,1030.18
2023-02-04T09:59:06.040Z,1030.16
2023-02-04T10:00:06.064Z,1030.22
2023-02-04T10:01:06.223Z,1030.24
2023-02-04T10:02:06.111Z,1030.26
2023-02-04T10:03:06.134Z,1030.27
2023-02-04T10:04:06.161Z,1030.26
2023-02-04T10:05:06.183Z,1030.23
2023-02-04T10:06:06.213Z,1030.29
2023-02-04T10:07:06.236Z,1030.29
2023-02-04T10:08:06.261Z,1030.27
2023-02-04T10:09:06.284Z,1030.30
2023-02-04T10:10:06.331Z,1030.30
2023-02-04T10:11:06.338Z,1030.30
2023-02-04T10:12:06.362Z,1030.33
2023-02-04T10:13:06.386Z,1030.32
2023-02-04T10:14:06.411Z,1030.33
2023-02-04T10:15:06.437Z,1030.33
2023-02-04T10:16:06.466Z,1030.36
2023-02-04T10:17:06.486Z,1030.36
2023-02-04T10:18:06.524Z,1030.38
2023-02-04T10:19:06.540Z,1030.40
2023-02-04T10:20:06.566Z,1030.38
2023-02-04T10:21:06.594Z,1030.42
2023-02-04T10:22:06.617Z,1030.46
2023-02-04T10:23:06.640Z,1030.42
2023-02-04T10:24:06.667Z,1030.43
2023-02-04T10:25:06.689Z,1030.47
2023-02-04T10:26:06.740Z,1030.44
2023-02-04T10:27:06.744Z,1030.41
2023-02-04T10:28:06.797Z,1030.36
2023-02-04T10:29:08.840Z,1030.34
2023-02-04T10:30:06.827Z,1030.38
2023-02-04T10:31:07.005Z,1030.40
2023-02-04T10:32:06.888Z,1030.44
2023-02-04T10:33:06.902Z,1030.41
2023-02-04T10:34:06.931Z,1030.39
2023-02-04T10:35:06.956Z,1030.42
2023-02-04T10:36:06.997Z,1030.37
2023-02-04T10:37:07.006Z,1030.41
2023-02-04T10:38:07.037Z,1030.34
2023-02-04T10:39:07.059Z,1030.39
2023-02-04T10:40:07.089Z,1030.31
2023-02-04T10:41:07.109Z,1030.30
2023-02-04T10:42:07.157Z,1030.31
2023-02-04T10:43:07.169Z,1030.35
2023-02-04T10:44:07.194Z,1030.33
2023-02-04T10:45:07.215Z,1030.32
2023-02-04T10:46:07.279Z,1030.37
2023-02-04T10:47:07.272Z,1030.28
2023-02-04T10:48:07.294Z,1030.29
2023-02-04T10:49:07.318Z,1030.34
2023-02-04T10:50:07.352Z,1030.31
2023-02-04T10:51:07.371Z,1030.30
2023-02-04T10:52:07.399Z,1030.29
2023-02-04T10:53:07.422Z,1030.31
2023-02-04T10:54:07.452Z,1030.27
2023-02-04T10:55:07.489Z,1030.28
2023-02-04T10:56:07.504Z,1030.32
2023-02-04T10:57:07.527Z,1030.32
2023-02-04T10:58:07.569Z,1030.29
2023-02-04T10:59:07.580Z,1030.33
2023-02-04T11:00:07.603Z,1030.32
2023-02-04T11:01:07.677Z,1030.31
2023-02-04T11:02:07.670Z,1030.33
2023-02-04T11:03:07.716Z,1030.32
2023-02-04T11:04:07.710Z,1030.28
2023-02-04T11:05:07.736Z,1030.30
2023-02-04T11:06:07.767Z,1030.31
2023-02-04T11:07:07.790Z,1030.28
2023-02-04T11:08:07.813Z,1030.28
2023-02-04T11:09:07.842Z,1030.28
2023-02-04T11:10:07.866Z,1030.28
2023-02-04T11:11:07.895Z,1030.36
2023-02-04T11:12:07.918Z,1030.30
2023-02-04T11:13:07.946Z,1030.33
2023-02-04T11:14:07.988Z,1030.29
2023-02-04T11:15:08.008Z,1030.32
2023-02-04T11:16:08.188Z,1030.32
2023-02-04T11:17:08.050Z,1030.32
2023-02-04T11:18:08.077Z,1030.29
2023-02-04T11:19:08.105Z,1030.32
2023-02-04T11:21:10.728Z,1030.25
2023-02-04T11:23:18.360Z,1030.34
2023-02-04T11:24:18.384Z,1030.28
2023-02-04T11:25:18.410Z,1030.29
2023-02-04T11:26:18.438Z,1030.36
2023-02-04T11:27:18.462Z,1030.39
2023-02-04T11:28:18.532Z,1030.37
2023-02-04T11:29:21.964Z,1030.36
2023-02-04T11:31:06.174Z,1030.38
2023-02-04T11:32:06.130Z,1030.36
2023-02-04T11:33:06.166Z,1030.40
2023-02-04T11:34:06.182Z,1030.38
2023-02-04T11:35:06.206Z,1030.35
2023-02-04T11:36:06.234Z,1030.31
2023-02-04T11:37:06.259Z,1030.28
2023-02-04T11:38:06.288Z,1030.34
2023-02-04T11:39:06.309Z,1030.30
2023-02-04T11:40:06.336Z,1030.35
2023-02-04T11:41:06.358Z,1030.32
2023-02-04T11:42:06.386Z,1030.34
2023-02-04T11:43:06.411Z,1030.35
2023-02-04T11:44:06.440Z,1030.35
2023-02-04T11:45:06.485Z,1030.32
2023-02-04T11:46:06.567Z,1030.35
2023-02-04T11:47:06.516Z,1030.36
2023-02-04T11:48:06.543Z,1030.33
2023-02-04T11:49:06.567Z,1030.34
2023-02-04T11:50:06.598Z,1030.33
2023-02-04T11:51:06.623Z,1030.32
2023-02-04T11:52:06.649Z,1030.35
2023-02-04T11:53:06.672Z,1030.29
2023-02-04T11:54:06.700Z,1030.34
2023-02-04T11:56:24.358Z,1030.35
2023-02-04T11:57:24.385Z,1030.35
2023-02-04T11:58:24.414Z,1030.31
2023-02-04T11:59:24.438Z,1030.33
2023-02-04T12:00:24.484Z,1030.34
2023-02-04T12:01:24.493Z,1030.31
2023-02-04T12:02:24.551Z,1030.40
2023-02-04T12:03:24.575Z,1030.38
2023-02-04T12:04:24.577Z,1030.32
2023-02-04T12:05:24.599Z,1030.36
2023-02-04T12:06:24.632Z,1030.31
2023-02-04T12:07:24.654Z,1030.34
2023-02-04T12:08:24.687Z,1030.37
2023-02-04T12:09:24.715Z,1030.38
2023-02-04T12:10:24.730Z,1030.34